sensor_id;sensor_type;location;lat;lon;timestamp;P1;durP1;ratioP1;P2;durP2;ratioP2
68614;SDS011;55593;51.994;5.882;2023-02-28T00:01:58;6.38;;;3.65;;
68614;SDS011;55593;51.994;5.882;2023-02-28T00:04:27;11.45;;;4.13;;
68614;SDS011;55593;51.994;5.882;2023-02-28T00:06:56;8.88;;;3.50;;
68614;SDS011;55593;51.994;5.882;2023-02-28T00:09:25;6.82;;;3.53;;
68614;SDS011;55593;51.994;5.882;2023-02-28T00:11:55;7.45;;;3.65;;
68614;SDS011;55593;51.994;5.882;2023-02-28T00:14:24;7.55;;;3.70;;
68614;SDS011;55593;51.994;5.882;2023-02-28T00:16:53;5.80;;;3.53;;
68614;SDS011;55593;51.994;5.882;2023-02-28T00:19:25;10.10;;;4.00;;
68614;SDS011;55593;51.994;5.882;2023-02-28T00:21:54;12.05;;;4.63;;
68614;SDS011;55593;51.994;5.882;2023-02-28T00:24:23;7.82;;;4.07;;
68614;SDS011;55593;51.994;5.882;2023-02-28T00:26:52;10.20;;;4.40;;
68614;SDS011;55593;51.994;5.882;2023-02-28T00:29:22;11.57;;;4.18;;
68614;SDS011;55593;51.994;5.882;2023-02-28T00:31:51;9.93;;;4.13;;
68614;SDS011;55593;51.994;5.882;2023-02-28T00:34:20;7.18;;;3.97;;
68614;SDS011;55593;51.994;5.882;2023-02-28T00:36:52;10.40;;;4.38;;
68614;SDS011;55593;51.994;5.882;2023-02-28T00:39:21;11.38;;;4.18;;
68614;SDS011;55593;51.994;5.882;2023-02-28T00:41:51;8.68;;;3.72;;
68614;SDS011;55593;51.994;5.882;2023-02-28T00:44:20;7.47;;;4.30;;
68614;SDS011;55593;51.994;5.882;2023-02-28T00:46:49;8.70;;;4.15;;
68614;SDS011;55593;51.994;5.882;2023-02-28T00:49:24;8.93;;;4.90;;
68614;SDS011;55593;51.994;5.882;2023-02-28T00:51:56;8.02;;;4.38;;
68614;SDS011;55593;51.994;5.882;2023-02-28T00:54:26;9.30;;;4.55;;
68614;SDS011;55593;51.994;5.882;2023-02-28T00:56:55;10.55;;;4.53;;
68614;SDS011;55593;51.994;5.882;2023-02-28T00:59:24;7.45;;;4.43;;
68614;SDS011;55593;51.994;5.882;2023-02-28T01:01:54;8.25;;;3.47;;
68614;SDS011;55593;51.994;5.882;2023-02-28T01:04:23;6.90;;;4.05;;
68614;SDS011;55593;51.994;5.882;2023-02-28T01:06:52;8.82;;;4.30;;
68614;SDS011;55593;51.994;5.882;2023-02-28T01:09:24;11.63;;;4.38;;
68614;SDS011;55593;51.994;5.882;2023-02-28T01:11:53;10.43;;;4.13;;
68614;SDS011;55593;51.994;5.882;2023-02-28T01:14:22;8.90;;;4.28;;
68614;SDS011;55593;51.994;5.882;2023-02-28T01:16:51;8.85;;;4.35;;
68614;SDS011;55593;51.994;5.882;2023-02-28T01:19:20;9.75;;;4.68;;
68614;SDS011;55593;51.994;5.882;2023-02-28T01:21:49;7.93;;;4.80;;
68614;SDS011;55593;51.994;5.882;2023-02-28T01:24:19;9.98;;;4.38;;
68614;SDS011;55593;51.994;5.882;2023-02-28T01:26:50;7.93;;;4.30;;
68614;SDS011;55593;51.994;5.882;2023-02-28T01:29:20;12.95;;;4.65;;
68614;SDS011;55593;51.994;5.882;2023-02-28T01:31:52;9.95;;;4.38;;
68614;SDS011;55593;51.994;5.882;2023-02-28T01:34:22;7.47;;;4.80;;
68614;SDS011;55593;51.994;5.882;2023-02-28T01:36:52;9.48;;;4.18;;
68614;SDS011;55593;51.994;5.882;2023-02-28T01:39:21;9.23;;;4.40;;
68614;SDS011;55593;51.994;5.882;2023-02-28T01:41:52;8.75;;;5.30;;
68614;SDS011;55593;51.994;5.882;2023-02-28T01:47:21;6.85;;;4.10;;
68614;SDS011;55593;51.994;5.882;2023-02-28T01:49:51;9.00;;;4.70;;
68614;SDS011;55593;51.994;5.882;2023-02-28T01:52:20;12.60;;;4.40;;
68614;SDS011;55593;51.994;5.882;2023-02-28T01:54:54;10.20;;;4.18;;
68614;SDS011;55593;51.994;5.882;2023-02-28T01:57:28;8.77;;;3.88;;
68614;SDS011;55593;51.994;5.882;2023-02-28T02:00:05;10.15;;;4.90;;
68614;SDS011;55593;51.994;5.882;2023-02-28T02:02:39;8.30;;;4.50;;
68614;SDS011;55593;51.994;5.882;2023-02-28T02:05:10;9.07;;;4.40;;
68614;SDS011;55593;51.994;5.882;2023-02-28T02:07:41;10.23;;;4.43;;
68614;SDS011;55593;51.994;5.882;2023-02-28T02:10:13;9.73;;;5.30;;
68614;SDS011;55593;51.994;5.882;2023-02-28T02:15:43;10.32;;;4.28;;
68614;SDS011;55593;51.994;5.882;2023-02-28T02:18:20;10.77;;;4.75;;
68614;SDS011;55593;51.994;5.882;2023-02-28T02:21:02;9.88;;;4.82;;
68614;SDS011;55593;51.994;5.882;2023-02-28T02:26:54;8.85;;;4.65;;
68614;SDS011;55593;51.994;5.882;2023-02-28T02:29:40;15.15;;;4.38;;
68614;SDS011;55593;51.994;5.882;2023-02-28T02:35:37;7.57;;;4.63;;
68614;SDS011;55593;51.994;5.882;2023-02-28T02:38:10;9.00;;;3.72;;
68614;SDS011;55593;51.994;5.882;2023-02-28T02:40:43;9.30;;;4.03;;
68614;SDS011;55593;51.994;5.882;2023-02-28T02:43:17;9.25;;;4.35;;
68614;SDS011;55593;51.994;5.882;2023-02-28T02:45:49;8.43;;;3.65;;
68614;SDS011;55593;51.994;5.882;2023-02-28T02:48:29;5.47;;;3.38;;
68614;SDS011;55593;51.994;5.882;2023-02-28T02:51:04;13.02;;;4.40;;
68614;SDS011;55593;51.994;5.882;2023-02-28T02:53:40;8.80;;;4.07;;
68614;SDS011;55593;51.994;5.882;2023-02-28T02:56:11;6.72;;;3.95;;
68614;SDS011;55593;51.994;5.882;2023-02-28T02:58:41;8.65;;;3.50;;
68614;SDS011;55593;51.994;5.882;2023-02-28T03:01:12;8.55;;;4.30;;
68614;SDS011;55593;51.994;5.882;2023-02-28T03:03:54;7.88;;;3.88;;
68614;SDS011;55593;51.994;5.882;2023-02-28T03:06:27;6.82;;;3.92;;
68614;SDS011;55593;51.994;5.882;2023-02-28T03:08:56;8.18;;;3.95;;
68614;SDS011;55593;51.994;5.882;2023-02-28T03:11:26;7.47;;;4.20;;
68614;SDS011;55593;51.994;5.882;2023-02-28T03:13:59;9.95;;;5.15;;
68614;SDS011;55593;51.994;5.882;2023-02-28T03:17:09;9.55;;;4.47;;
68614;SDS011;55593;51.994;5.882;2023-02-28T03:19:55;8.30;;;4.25;;
68614;SDS011;55593;51.994;5.882;2023-02-28T03:22:38;7.60;;;4.28;;
68614;SDS011;55593;51.994;5.882;2023-02-28T03:25:18;6.65;;;4.10;;
68614;SDS011;55593;51.994;5.882;2023-02-28T03:27:59;8.48;;;4.20;;
68614;SDS011;55593;51.994;5.882;2023-02-28T03:30:33;7.47;;;4.35;;
68614;SDS011;55593;51.994;5.882;2023-02-28T03:33:06;10.02;;;4.60;;
68614;SDS011;55593;51.994;5.882;2023-02-28T03:35:39;6.80;;;4.20;;
68614;SDS011;55593;51.994;5.882;2023-02-28T03:38:12;6.22;;;4.20;;
68614;SDS011;55593;51.994;5.882;2023-02-28T03:40:47;11.68;;;3.83;;
68614;SDS011;55593;51.994;5.882;2023-02-28T03:43:18;6.18;;;3.13;;
68614;SDS011;55593;51.994;5.882;2023-02-28T03:45:50;7.35;;;3.83;;
68614;SDS011;55593;51.994;5.882;2023-02-28T03:48:21;5.95;;;3.75;;
68614;SDS011;55593;51.994;5.882;2023-02-28T03:50:53;7.07;;;3.40;;
68614;SDS011;55593;51.994;5.882;2023-02-28T03:53:27;8.73;;;4.18;;
68614;SDS011;55593;51.994;5.882;2023-02-28T03:55:59;7.40;;;2.50;;
68614;SDS011;55593;51.994;5.882;2023-02-28T03:58:31;4.25;;;2.30;;
68614;SDS011;55593;51.994;5.882;2023-02-28T04:03:36;4.57;;;2.35;;
68614;SDS011;55593;51.994;5.882;2023-02-28T04:06:06;4.30;;;2.28;;
68614;SDS011;55593;51.994;5.882;2023-02-28T04:08:39;5.53;;;3.33;;
68614;SDS011;55593;51.994;5.882;2023-02-28T04:11:12;3.00;;;1.95;;
68614;SDS011;55593;51.994;5.882;2023-02-28T04:13:47;4.45;;;2.13;;
68614;SDS011;55593;51.994;5.882;2023-02-28T04:16:16;4.10;;;2.17;;
68614;SDS011;55593;51.994;5.882;2023-02-28T04:18:48;6.18;;;2.00;;
68614;SDS011;55593;51.994;5.882;2023-02-28T04:21:17;4.45;;;2.17;;
68614;SDS011;55593;51.994;5.882;2023-02-28T04:23:51;6.05;;;2.85;;
68614;SDS011;55593;51.994;5.882;2023-02-28T04:26:20;5.05;;;2.55;;
68614;SDS011;55593;51.994;5.882;2023-02-28T04:28:50;6.25;;;2.60;;
68614;SDS011;55593;51.994;5.882;2023-02-28T04:31:19;5.53;;;2.70;;
68614;SDS011;55593;51.994;5.882;2023-02-28T04:33:48;5.60;;;2.63;;
68614;SDS011;55593;51.994;5.882;2023-02-28T04:36:17;7.72;;;2.97;;
68614;SDS011;55593;51.994;5.882;2023-02-28T04:38:51;4.93;;;2.75;;
68614;SDS011;55593;51.994;5.882;2023-02-28T04:41:20;6.13;;;2.83;;
68614;SDS011;55593;51.994;5.882;2023-02-28T04:43:50;5.50;;;2.60;;
68614;SDS011;55593;51.994;5.882;2023-02-28T04:46:20;6.22;;;3.70;;
68614;SDS011;55593;51.994;5.882;2023-02-28T04:48:49;4.85;;;3.05;;
68614;SDS011;55593;51.994;5.882;2023-02-28T04:51:19;8.07;;;2.95;;
68614;SDS011;55593;51.994;5.882;2023-02-28T04:53:51;5.05;;;2.85;;
68614;SDS011;55593;51.994;5.882;2023-02-28T04:56:21;7.03;;;3.00;;
68614;SDS011;55593;51.994;5.882;2023-02-28T04:58:50;7.60;;;3.10;;
68614;SDS011;55593;51.994;5.882;2023-02-28T05:01:21;6.18;;;2.83;;
68614;SDS011;55593;51.994;5.882;2023-02-28T05:03:52;5.97;;;3.10;;
68614;SDS011;55593;51.994;5.882;2023-02-28T05:06:23;7.93;;;2.75;;
68614;SDS011;55593;51.994;5.882;2023-02-28T05:08:56;5.68;;;2.67;;
68614;SDS011;55593;51.994;5.882;2023-02-28T05:11:26;6.78;;;2.45;;
68614;SDS011;55593;51.994;5.882;2023-02-28T05:14:00;4.03;;;2.13;;
68614;SDS011;55593;51.994;5.882;2023-02-28T05:16:29;6.03;;;2.90;;
68614;SDS011;55593;51.994;5.882;2023-02-28T05:18:58;5.47;;;2.47;;
68614;SDS011;55593;51.994;5.882;2023-02-28T05:21:28;4.60;;;2.53;;
68614;SDS011;55593;51.994;5.882;2023-02-28T05:24:01;3.97;;;2.55;;
68614;SDS011;55593;51.994;5.882;2023-02-28T05:26:34;6.78;;;2.80;;
68614;SDS011;55593;51.994;5.882;2023-02-28T05:29:04;6.53;;;2.40;;
68614;SDS011;55593;51.994;5.882;2023-02-28T05:31:33;4.95;;;2.40;;
68614;SDS011;55593;51.994;5.882;2023-02-28T05:34:03;3.45;;;2.35;;
68614;SDS011;55593;51.994;5.882;2023-02-28T05:36:32;7.60;;;2.90;;
68614;SDS011;55593;51.994;5.882;2023-02-28T05:39:04;7.57;;;2.65;;
68614;SDS011;55593;51.994;5.882;2023-02-28T05:41:41;4.28;;;2.35;;
68614;SDS011;55593;51.994;5.882;2023-02-28T05:44:11;6.13;;;2.47;;
68614;SDS011;55593;51.994;5.882;2023-02-28T05:46:40;3.85;;;2.58;;
68614;SDS011;55593;51.994;5.882;2023-02-28T05:49:09;5.78;;;2.67;;
68614;SDS011;55593;51.994;5.882;2023-02-28T05:51:38;5.20;;;3.15;;
68614;SDS011;55593;51.994;5.882;2023-02-28T05:54:10;6.18;;;2.53;;
68614;SDS011;55593;51.994;5.882;2023-02-28T05:56:39;5.22;;;2.88;;
68614;SDS011;55593;51.994;5.882;2023-02-28T05:59:11;4.60;;;2.55;;
68614;SDS011;55593;51.994;5.882;2023-02-28T06:01:41;5.57;;;2.67;;
68614;SDS011;55593;51.994;5.882;2023-02-28T06:04:14;6.13;;;2.70;;
68614;SDS011;55593;51.994;5.882;2023-02-28T06:06:44;9.70;;;3.33;;
68614;SDS011;55593;51.994;5.882;2023-02-28T06:09:16;4.82;;;2.38;;
68614;SDS011;55593;51.994;5.882;2023-02-28T06:11:46;4.85;;;2.53;;
68614;SDS011;55593;51.994;5.882;2023-02-28T06:14:16;5.40;;;2.40;;
68614;SDS011;55593;51.994;5.882;2023-02-28T06:16:46;9.18;;;2.53;;
68614;SDS011;55593;51.994;5.882;2023-02-28T06:19:15;9.23;;;5.38;;
68614;SDS011;55593;51.994;5.882;2023-02-28T06:21:44;4.60;;;2.30;;
68614;SDS011;55593;51.994;5.882;2023-02-28T06:24:16;4.30;;;2.17;;
68614;SDS011;55593;51.994;5.882;2023-02-28T06:26:45;6.22;;;2.55;;
68614;SDS011;55593;51.994;5.882;2023-02-28T06:29:14;4.07;;;2.10;;
68614;SDS011;55593;51.994;5.882;2023-02-28T06:31:45;4.03;;;2.08;;
68614;SDS011;55593;51.994;5.882;2023-02-28T06:34:15;5.10;;;2.13;;
68614;SDS011;55593;51.994;5.882;2023-02-28T06:36:44;5.40;;;2.35;;
68614;SDS011;55593;51.994;5.882;2023-02-28T06:39:16;4.95;;;2.30;;
68614;SDS011;55593;51.994;5.882;2023-02-28T06:41:45;3.83;;;1.80;;
68614;SDS011;55593;51.994;5.882;2023-02-28T06:44:18;3.05;;;1.45;;
68614;SDS011;55593;51.994;5.882;2023-02-28T06:46:47;4.32;;;2.15;;
68614;SDS011;55593;51.994;5.882;2023-02-28T06:49:17;3.28;;;2.20;;
68614;SDS011;55593;51.994;5.882;2023-02-28T06:51:46;4.20;;;2.05;;
68614;SDS011;55593;51.994;5.882;2023-02-28T06:54:18;3.53;;;1.80;;
68614;SDS011;55593;51.994;5.882;2023-02-28T06:56:47;3.40;;;2.20;;
68614;SDS011;55593;51.994;5.882;2023-02-28T06:59:16;4.30;;;1.90;;
68614;SDS011;55593;51.994;5.882;2023-02-28T07:01:45;4.10;;;1.80;;
68614;SDS011;55593;51.994;5.882;2023-02-28T07:04:15;7.00;;;2.08;;
68614;SDS011;55593;51.994;5.882;2023-02-28T07:06:44;4.10;;;1.73;;
68614;SDS011;55593;51.994;5.882;2023-02-28T07:09:13;3.90;;;2.10;;
68614;SDS011;55593;51.994;5.882;2023-02-28T07:11:45;3.47;;;1.92;;
68614;SDS011;55593;51.994;5.882;2023-02-28T07:14:14;7.30;;;2.83;;
68614;SDS011;55593;51.994;5.882;2023-02-28T07:16:43;4.95;;;2.40;;
68614;SDS011;55593;51.994;5.882;2023-02-28T07:19:13;4.05;;;1.90;;
68614;SDS011;55593;51.994;5.882;2023-02-28T07:21:42;5.45;;;2.60;;
68614;SDS011;55593;51.994;5.882;2023-02-28T07:24:11;5.47;;;2.20;;
68614;SDS011;55593;51.994;5.882;2023-02-28T07:26:41;5.88;;;2.55;;
68614;SDS011;55593;51.994;5.882;2023-02-28T07:29:13;8.18;;;3.33;;
68614;SDS011;55593;51.994;5.882;2023-02-28T07:31:42;5.20;;;2.28;;
68614;SDS011;55593;51.994;5.882;2023-02-28T07:34:12;3.83;;;2.30;;
68614;SDS011;55593;51.994;5.882;2023-02-28T07:36:41;8.30;;;2.70;;
68614;SDS011;55593;51.994;5.882;2023-02-28T07:39:10;4.47;;;2.92;;
68614;SDS011;55593;51.994;5.882;2023-02-28T07:41:39;5.00;;;3.00;;
68614;SDS011;55593;51.994;5.882;2023-02-28T07:44:09;3.45;;;2.47;;
68614;SDS011;55593;51.994;5.882;2023-02-28T07:46:41;6.68;;;2.70;;
68614;SDS011;55593;51.994;5.882;2023-02-28T07:49:10;4.70;;;2.83;;
68614;SDS011;55593;51.994;5.882;2023-02-28T07:51:39;4.82;;;2.90;;
68614;SDS011;55593;51.994;5.882;2023-02-28T07:54:08;5.20;;;2.97;;
68614;SDS011;55593;51.994;5.882;2023-02-28T07:56:38;5.28;;;3.03;;
68614;SDS011;55593;51.994;5.882;2023-02-28T07:59:07;6.50;;;3.25;;
68614;SDS011;55593;51.994;5.882;2023-02-28T08:01:36;5.72;;;3.10;;
68614;SDS011;55593;51.994;5.882;2023-02-28T08:04:08;5.15;;;2.97;;
68614;SDS011;55593;51.994;5.882;2023-02-28T08:06:37;4.90;;;2.75;;
68614;SDS011;55593;51.994;5.882;2023-02-28T08:09:06;6.55;;;3.15;;
68614;SDS011;55593;51.994;5.882;2023-02-28T08:11:35;4.82;;;2.95;;
68614;SDS011;55593;51.994;5.882;2023-02-28T08:14:04;4.38;;;2.88;;
68614;SDS011;55593;51.994;5.882;2023-02-28T08:16:34;4.82;;;3.20;;
68614;SDS011;55593;51.994;5.882;2023-02-28T08:19:04;6.05;;;3.00;;
68614;SDS011;55593;51.994;5.882;2023-02-28T08:21:36;5.85;;;2.92;;
68614;SDS011;55593;51.994;5.882;2023-02-28T08:24:06;5.07;;;2.70;;
68614;SDS011;55593;51.994;5.882;2023-02-28T08:26:35;4.93;;;2.90;;
68614;SDS011;55593;51.994;5.882;2023-02-28T08:29:04;6.32;;;2.70;;
68614;SDS011;55593;51.994;5.882;2023-02-28T08:31:34;5.07;;;3.15;;
68614;SDS011;55593;51.994;5.882;2023-02-28T08:34:05;4.15;;;2.60;;
68614;SDS011;55593;51.994;5.882;2023-02-28T08:36:37;6.00;;;2.85;;
68614;SDS011;55593;51.994;5.882;2023-02-28T08:39:07;7.32;;;2.92;;
68614;SDS011;55593;51.994;5.882;2023-02-28T08:41:36;5.72;;;2.63;;
68614;SDS011;55593;51.994;5.882;2023-02-28T08:44:05;4.13;;;2.40;;
68614;SDS011;55593;51.994;5.882;2023-02-28T08:46:35;8.15;;;2.83;;
68614;SDS011;55593;51.994;5.882;2023-02-28T08:49:04;5.88;;;2.53;;
68614;SDS011;55593;51.994;5.882;2023-02-28T08:51:33;5.97;;;2.72;;
68614;SDS011;55593;51.994;5.882;2023-02-28T08:54:05;8.23;;;2.97;;
68614;SDS011;55593;51.994;5.882;2023-02-28T08:56:34;4.18;;;2.40;;
68614;SDS011;55593;51.994;5.882;2023-02-28T08:59:03;3.85;;;2.40;;
68614;SDS011;55593;51.994;5.882;2023-02-28T09:01:32;4.95;;;2.20;;
68614;SDS011;55593;51.994;5.882;2023-02-28T09:04:02;5.18;;;2.28;;
68614;SDS011;55593;51.994;5.882;2023-02-28T09:06:34;4.47;;;2.55;;
68614;SDS011;55593;51.994;5.882;2023-02-28T09:09:06;4.78;;;2.47;;
68614;SDS011;55593;51.994;5.882;2023-02-28T09:11:35;3.42;;;2.03;;
68614;SDS011;55593;51.994;5.882;2023-02-28T09:14:04;3.28;;;1.90;;
68614;SDS011;55593;51.994;5.882;2023-02-28T09:16:34;2.92;;;1.77;;
68614;SDS011;55593;51.994;5.882;2023-02-28T09:19:03;3.58;;;2.10;;
68614;SDS011;55593;51.994;5.882;2023-02-28T09:21:32;3.47;;;2.08;;
68614;SDS011;55593;51.994;5.882;2023-02-28T09:24:01;4.90;;;2.97;;
68614;SDS011;55593;51.994;5.882;2023-02-28T09:26:33;10.25;;;2.58;;
68614;SDS011;55593;51.994;5.882;2023-02-28T09:29:03;5.43;;;2.22;;
68614;SDS011;55593;51.994;5.882;2023-02-28T09:31:32;3.47;;;2.13;;
68614;SDS011;55593;51.994;5.882;2023-02-28T09:34:01;5.07;;;2.17;;
68614;SDS011;55593;51.994;5.882;2023-02-28T09:36:32;3.63;;;2.17;;
68614;SDS011;55593;51.994;5.882;2023-02-28T09:39:01;5.03;;;1.98;;
68614;SDS011;55593;51.994;5.882;2023-02-28T09:41:38;4.05;;;2.03;;
68614;SDS011;55593;51.994;5.882;2023-02-28T09:44:13;4.28;;;1.80;;
68614;SDS011;55593;51.994;5.882;2023-02-28T09:46:46;4.03;;;2.17;;
68614;SDS011;55593;51.994;5.882;2023-02-28T09:49:19;3.10;;;1.83;;
68614;SDS011;55593;51.994;5.882;2023-02-28T09:51:53;3.50;;;2.10;;
68614;SDS011;55593;51.994;5.882;2023-02-28T09:54:27;4.82;;;2.42;;
68614;SDS011;55593;51.994;5.882;2023-02-28T09:57:01;5.38;;;2.47;;
68614;SDS011;55593;51.994;5.882;2023-02-28T09:59:48;3.28;;;2.03;;
68614;SDS011;55593;51.994;5.882;2023-02-28T10:02:36;3.50;;;2.20;;
68614;SDS011;55593;51.994;5.882;2023-02-28T10:05:11;6.10;;;2.30;;
68614;SDS011;55593;51.994;5.882;2023-02-28T10:07:49;4.68;;;2.17;;
68614;SDS011;55593;51.994;5.882;2023-02-28T10:10:26;3.90;;;2.03;;
68614;SDS011;55593;51.994;5.882;2023-02-28T10:13:01;4.80;;;2.10;;
68614;SDS011;55593;51.994;5.882;2023-02-28T10:15:32;4.45;;;2.30;;
68614;SDS011;55593;51.994;5.882;2023-02-28T10:18:04;3.22;;;1.90;;
68614;SDS011;55593;51.994;5.882;2023-02-28T10:20:35;4.07;;;1.80;;
68614;SDS011;55593;51.994;5.882;2023-02-28T10:23:08;4.80;;;2.30;;
68614;SDS011;55593;51.994;5.882;2023-02-28T10:25:40;4.53;;;2.28;;
68614;SDS011;55593;51.994;5.882;2023-02-28T10:28:16;3.92;;;2.03;;
68614;SDS011;55593;51.994;5.882;2023-02-28T10:30:47;3.78;;;2.17;;
68614;SDS011;55593;51.994;5.882;2023-02-28T10:33:19;2.90;;;1.65;;
68614;SDS011;55593;51.994;5.882;2023-02-28T10:35:51;4.45;;;2.10;;
68614;SDS011;55593;51.994;5.882;2023-02-28T10:38:22;7.25;;;2.30;;
68614;SDS011;55593;51.994;5.882;2023-02-28T10:41:03;3.90;;;1.95;;
68614;SDS011;55593;51.994;5.882;2023-02-28T10:43:36;3.95;;;2.05;;
68614;SDS011;55593;51.994;5.882;2023-02-28T10:46:10;6.18;;;2.33;;
68614;SDS011;55593;51.994;5.882;2023-02-28T10:48:59;3.10;;;1.75;;
68614;SDS011;55593;51.994;5.882;2023-02-28T10:51:37;3.90;;;2.30;;
68614;SDS011;55593;51.994;5.882;2023-02-28T10:54:14;5.35;;;2.97;;
68614;SDS011;55593;51.994;5.882;2023-02-28T10:56:44;3.80;;;1.80;;
68614;SDS011;55593;51.994;5.882;2023-02-28T10:59:28;3.90;;;2.40;;
68614;SDS011;55593;51.994;5.882;2023-02-28T11:01:58;3.75;;;2.15;;
68614;SDS011;55593;51.994;5.882;2023-02-28T11:04:35;3.65;;;2.15;;
68614;SDS011;55593;51.994;5.882;2023-02-28T11:07:06;3.88;;;2.00;;
68614;SDS011;55593;51.994;5.882;2023-02-28T11:09:45;4.07;;;2.10;;
68614;SDS011;55593;51.994;5.882;2023-02-28T11:12:23;3.75;;;2.13;;
68614;SDS011;55593;51.994;5.882;2023-02-28T11:14:58;3.20;;;1.98;;
68614;SDS011;55593;51.994;5.882;2023-02-28T11:17:30;3.55;;;2.22;;
68614;SDS011;55593;51.994;5.882;2023-02-28T11:20:00;4.65;;;2.10;;
68614;SDS011;55593;51.994;5.882;2023-02-28T11:22:33;3.58;;;2.00;;
68614;SDS011;55593;51.994;5.882;2023-02-28T11:25:07;2.97;;;1.92;;
68614;SDS011;55593;51.994;5.882;2023-02-28T11:27:46;4.82;;;2.25;;
68614;SDS011;55593;51.994;5.882;2023-02-28T11:30:25;3.80;;;1.83;;
68614;SDS011;55593;51.994;5.882;2023-02-28T11:32:56;5.45;;;2.15;;
68614;SDS011;55593;51.994;5.882;2023-02-28T11:35:26;4.75;;;2.17;;
68614;SDS011;55593;51.994;5.882;2023-02-28T11:38:00;4.03;;;2.35;;
68614;SDS011;55593;51.994;5.882;2023-02-28T11:40:34;3.33;;;2.10;;
68614;SDS011;55593;51.994;5.882;2023-02-28T11:43:10;4.43;;;2.10;;
68614;SDS011;55593;51.994;5.882;2023-02-28T11:45:55;5.00;;;2.00;;
68614;SDS011;55593;51.994;5.882;2023-02-28T11:48:32;3.70;;;2.00;;
68614;SDS011;55593;51.994;5.882;2023-02-28T11:51:08;4.15;;;2.40;;
68614;SDS011;55593;51.994;5.882;2023-02-28T11:56:47;3.90;;;1.98;;
68614;SDS011;55593;51.994;5.882;2023-02-28T11:59:24;3.92;;;1.90;;
68614;SDS011;55593;51.994;5.882;2023-02-28T12:02:08;3.85;;;2.10;;
68614;SDS011;55593;51.994;5.882;2023-02-28T12:05:04;4.55;;;2.38;;
68614;SDS011;55593;51.994;5.882;2023-02-28T12:07:43;7.97;;;2.40;;
68614;SDS011;55593;51.994;5.882;2023-02-28T12:10:20;5.55;;;2.15;;
68614;SDS011;55593;51.994;5.882;2023-02-28T12:12:54;4.88;;;2.25;;
68614;SDS011;55593;51.994;5.882;2023-02-28T12:18:45;4.85;;;2.50;;
68614;SDS011;55593;51.994;5.882;2023-02-28T12:21:24;6.32;;;2.75;;
68614;SDS011;55593;51.994;5.882;2023-02-28T12:24:14;4.05;;;2.28;;
68614;SDS011;55593;51.994;5.882;2023-02-28T12:26:51;3.83;;;2.30;;
68614;SDS011;55593;51.994;5.882;2023-02-28T12:29:23;4.10;;;2.33;;
68614;SDS011;55593;51.994;5.882;2023-02-28T12:31:56;6.32;;;2.58;;
68614;SDS011;55593;51.994;5.882;2023-02-28T12:34:35;4.50;;;2.47;;
68614;SDS011;55593;51.994;5.882;2023-02-28T12:37:07;4.55;;;2.67;;
68614;SDS011;55593;51.994;5.882;2023-02-28T12:39:40;4.30;;;2.88;;
68614;SDS011;55593;51.994;5.882;2023-02-28T12:42:13;4.32;;;2.47;;
68614;SDS011;55593;51.994;5.882;2023-02-28T12:44:46;4.13;;;2.60;;
68614;SDS011;55593;51.994;5.882;2023-02-28T12:47:18;6.38;;;2.55;;
68614;SDS011;55593;51.994;5.882;2023-02-28T12:49:51;4.50;;;2.72;;
68614;SDS011;55593;51.994;5.882;2023-02-28T12:52:25;3.85;;;2.38;;
68614;SDS011;55593;51.994;5.882;2023-02-28T12:55:00;3.47;;;2.07;;
68614;SDS011;55593;51.994;5.882;2023-02-28T12:57:34;3.38;;;2.13;;
68614;SDS011;55593;51.994;5.882;2023-02-28T13:00:09;5.32;;;2.42;;
68614;SDS011;55593;51.994;5.882;2023-02-28T13:05:39;3.83;;;2.50;;
68614;SDS011;55593;51.994;5.882;2023-02-28T13:08:21;4.40;;;2.10;;
68614;SDS011;55593;51.994;5.882;2023-02-28T13:10:56;3.55;;;2.30;;
68614;SDS011;55593;51.994;5.882;2023-02-28T13:13:26;3.90;;;2.17;;
68614;SDS011;55593;51.994;5.882;2023-02-28T13:16:01;3.15;;;2.03;;
68614;SDS011;55593;51.994;5.882;2023-02-28T13:18:34;3.58;;;2.35;;
68614;SDS011;55593;51.994;5.882;2023-02-28T13:21:08;4.35;;;2.30;;
68614;SDS011;55593;51.994;5.882;2023-02-28T13:23:40;4.13;;;2.22;;
68614;SDS011;55593;51.994;5.882;2023-02-28T13:29:27;3.60;;;2.60;;
68614;SDS011;55593;51.994;5.882;2023-02-28T13:44:11;5.15;;;2.60;;
68614;SDS011;55593;51.994;5.882;2023-02-28T13:49:46;4.50;;;2.40;;
68614;SDS011;55593;51.994;5.882;2023-02-28T13:52:17;4.25;;;2.45;;
68614;SDS011;55593;51.994;5.882;2023-02-28T13:54:56;4.82;;;2.50;;
68614;SDS011;55593;51.994;5.882;2023-02-28T13:57:38;4.25;;;2.83;;
68614;SDS011;55593;51.994;5.882;2023-02-28T14:00:16;5.30;;;3.08;;
68614;SDS011;55593;51.994;5.882;2023-02-28T14:03:00;5.00;;;2.50;;
68614;SDS011;55593;51.994;5.882;2023-02-28T14:05:40;5.18;;;2.92;;
68614;SDS011;55593;51.994;5.882;2023-02-28T14:08:12;5.78;;;2.80;;
68614;SDS011;55593;51.994;5.882;2023-02-28T14:10:47;3.90;;;2.30;;
68614;SDS011;55593;51.994;5.882;2023-02-28T14:16:10;3.67;;;2.20;;
68614;SDS011;55593;51.994;5.882;2023-02-28T14:18:41;5.60;;;2.40;;
68614;SDS011;55593;51.994;5.882;2023-02-28T14:21:16;3.88;;;2.45;;
68614;SDS011;55593;51.994;5.882;2023-02-28T14:27:00;9.63;;;2.70;;
68614;SDS011;55593;51.994;5.882;2023-02-28T14:32:41;6.32;;;2.22;;
68614;SDS011;55593;51.994;5.882;2023-02-28T14:35:18;3.22;;;2.22;;
68614;SDS011;55593;51.994;5.882;2023-02-28T14:38:04;11.82;;;4.47;;
68614;SDS011;55593;51.994;5.882;2023-02-28T14:40:34;4.50;;;2.55;;
68614;SDS011;55593;51.994;5.882;2023-02-28T14:43:16;4.38;;;2.55;;
68614;SDS011;55593;51.994;5.882;2023-02-28T14:45:51;4.65;;;2.35;;
68614;SDS011;55593;51.994;5.882;2023-02-28T14:48:22;5.85;;;2.22;;
68614;SDS011;55593;51.994;5.882;2023-02-28T14:50:53;3.25;;;1.95;;
68614;SDS011;55593;51.994;5.882;2023-02-28T14:53:25;4.22;;;2.22;;
68614;SDS011;55593;51.994;5.882;2023-02-28T14:55:56;4.20;;;2.20;;
68614;SDS011;55593;51.994;5.882;2023-02-28T14:58:29;3.05;;;2.00;;
68614;SDS011;55593;51.994;5.882;2023-02-28T15:01:00;4.53;;;2.40;;
68614;SDS011;55593;51.994;5.882;2023-02-28T15:03:32;3.70;;;2.22;;
68614;SDS011;55593;51.994;5.882;2023-02-28T15:06:03;4.68;;;2.17;;
68614;SDS011;55593;51.994;5.882;2023-02-28T15:08:34;3.45;;;2.10;;
68614;SDS011;55593;51.994;5.882;2023-02-28T15:11:04;5.57;;;2.20;;
68614;SDS011;55593;51.994;5.882;2023-02-28T15:13:38;5.07;;;2.10;;
68614;SDS011;55593;51.994;5.882;2023-02-28T15:16:10;3.67;;;2.25;;
68614;SDS011;55593;51.994;5.882;2023-02-28T15:18:43;4.90;;;1.90;;
68614;SDS011;55593;51.994;5.882;2023-02-28T15:21:14;5.45;;;2.17;;
68614;SDS011;55593;51.994;5.882;2023-02-28T15:23:45;3.50;;;2.03;;
68614;SDS011;55593;51.994;5.882;2023-02-28T15:26:16;3.03;;;1.90;;
68614;SDS011;55593;51.994;5.882;2023-02-28T15:28:48;3.55;;;2.10;;
68614;SDS011;55593;51.994;5.882;2023-02-28T15:31:20;7.40;;;2.38;;
68614;SDS011;55593;51.994;5.882;2023-02-28T15:33:55;3.95;;;2.20;;
68614;SDS011;55593;51.994;5.882;2023-02-28T15:36:26;4.38;;;2.17;;
68614;SDS011;55593;51.994;5.882;2023-02-28T15:38:59;5.75;;;1.90;;
68614;SDS011;55593;51.994;5.882;2023-02-28T15:41:30;4.80;;;1.95;;
68614;SDS011;55593;51.994;5.882;2023-02-28T15:44:23;4.95;;;2.20;;
68614;SDS011;55593;51.994;5.882;2023-02-28T15:46:57;4.47;;;2.55;;
68614;SDS011;55593;51.994;5.882;2023-02-28T15:49:28;9.18;;;2.53;;
68614;SDS011;55593;51.994;5.882;2023-02-28T15:51:59;4.32;;;2.22;;
68614;SDS011;55593;51.994;5.882;2023-02-28T15:54:29;3.95;;;2.63;;
68614;SDS011;55593;51.994;5.882;2023-02-28T15:57:03;2.85;;;1.90;;
68614;SDS011;55593;51.994;5.882;2023-02-28T15:59:37;4.45;;;2.00;;
68614;SDS011;55593;51.994;5.882;2023-02-28T16:02:14;3.33;;;2.17;;
68614;SDS011;55593;51.994;5.882;2023-02-28T16:04:55;3.90;;;2.10;;
68614;SDS011;55593;51.994;5.882;2023-02-28T16:07:26;5.65;;;2.10;;
68614;SDS011;55593;51.994;5.882;2023-02-28T16:09:55;4.32;;;2.35;;
68614;SDS011;55593;51.994;5.882;2023-02-28T16:12:25;3.85;;;2.10;;